Badger Spring Valley, Nevada Weather observations

Data are for 10 minute period ending at time listed.
 Day   Time   Solar   Ave.   Ave.  Ave.  Vector  Max.   Baro.   Total    
  of    of     Rad.   Air    Rel.  Wind   Wind   Wind  Press.  Precip.   
Year   Day            Temp.  Hum.  Speed  Dir.   Gust                    
2017   (PST)  Kw/m2    F      %     mph   deg.    mph    mb.     in.     
-------------------------------------------------------------------------
 327   11:20   0.27   66.0    28    5.6   136     8.5   836.5    0.00 
 327   11:30   0.28   64.9    28    5.1   131     7.7   836.4    0.00 
 327   11:40   0.43   65.8    28    4.6   149     7.9   836.2    0.00 
 327   11:50   0.43   66.4    27    5.2   136     8.0   836.0    0.00 
 327   12:00   0.44   66.8    27    5.0   156     7.6   835.9    0.00 
 327   12:10   0.42   67.1    26    5.9   145    10.1   835.8    0.00 
 327   12:20   0.37   65.8    28    6.6   124    10.0   835.7    0.00 
 327   12:30   0.36   65.5    28    6.6   130     9.3   835.5    0.00 
 327   12:40   0.34   65.0    29    7.1   128    10.8   835.4    0.00 
 327   12:50   0.29   64.8    29    5.7   146     8.8   835.3    0.00 
 327   13:00   0.32   65.0    29    4.2   136     7.0   835.3    0.00 
 327   13:10   0.34   64.7    29    4.2   121     6.6   835.2    0.00 
 327   13:20   0.39   64.9    29    4.0   124     6.6   835.1    0.00 
 327   13:30   0.51   65.6    28    3.2   130     5.9   835.1    0.00 
 327   13:40   0.53   66.3    28    3.3   140     5.4   835.0    0.00 
 327   13:50   0.48   67.3    27    2.6   219     5.3   835.0    0.00 
 327   14:00   0.41   67.9    26    1.7   169     6.8   834.9    0.00 
 327   14:10   0.30   66.5    27    4.1   135     7.2   834.7    0.00 
 327   14:20   0.39   67.5    26    2.8   180     5.8   834.5    0.00 
 327   14:30   0.37   67.2    26    1.2   166     5.2   834.5    0.00 
 327   14:40   0.32   67.5    26    3.4   152     6.4   834.4    0.00 
 327   14:50   0.29   67.4    26    3.3   172     5.8   834.3    0.00 
 327   15:00   0.27   66.8    26    4.2   136     7.4   834.2    0.00 
 327   15:10   0.23   66.4    27    4.8   126     6.9   834.2    0.00 
 327   15:20   0.20   66.0    27    4.9   124     7.2   834.2    0.00 
 327   15:30   0.18   65.6    27    3.4   132     7.1   834.1    0.00 
 327   15:40   0.15   65.5    28    4.1   123     6.4   834.2    0.00 
 327   15:50   0.12   64.7    28    4.3   122     6.8   834.1    0.00 
 327   16:00   0.05   63.8    29    4.0   158     6.4   834.0    0.00 
 327   16:10   0.01   62.1    30    1.6   202     4.4   833.9    0.00 
 327   16:20   0.01   60.8    32    1.4   180     2.9   833.7    0.00 
 327   16:30   0.01   59.1    33    1.7   213     3.1   833.5    0.00 
 327   16:40   0.00   57.2    34    2.3   284     3.4   833.4    0.00 
 327   16:50   0.00   55.4    37    1.7     2     2.5   833.3    0.00 
 327   17:00   0.00   54.9    38    2.4    46     3.3   833.2    0.00 
 327   17:10   0.00   56.2    37    1.6    31     2.9   833.1    0.00 
 327   17:20   0.00   57.3    35    0.8    75     2.6   833.0    0.00 
 327   17:30   0.00   55.6    37    0.6   152     2.5   833.1    0.00 
 327   17:40   0.00   53.9    39    0.4   242     1.2   833.1    0.00 
 327   17:50   0.00   53.3    39    0.5   260     1.2   833.0    0.00 
 327   18:00   0.00   53.0    37    2.9   314     4.4   833.0    0.00 
 327   18:10   0.00   54.1    36    2.1   318     2.9   833.1    0.00 
 327   18:20   0.00   54.3    36    2.6   284     4.3   833.1    0.00 
 327   18:30   0.00   53.5    35    4.5   306     6.4   833.1    0.00 
 327   18:40   0.00   53.7    34    5.7   302     7.4   833.2    0.00 
 327   18:50   0.00   53.7    35    5.7   258     7.0   833.1    0.00 
 327   19:00   0.00   57.2    31    6.7   249     8.8   833.1    0.00 
 327   19:10   0.00   57.7    31    8.2   250     9.4   833.0    0.00 
 327   19:20   0.00   57.2    32    8.4   252    10.2   832.9    0.00 
 327   19:30   0.00   55.7    33    4.4   272     6.9   833.0    0.00 
 327   19:40   0.00   53.1    36    1.0   293     3.7   833.0    0.00 
 327   19:50   0.00   55.3    34    5.3   278     9.6   833.0    0.00 
 327   20:00   0.00   57.4    32    6.9   257     9.5   832.9    0.00 
 327   20:10   0.00   57.9    32    4.8   265     7.3   832.9    0.00 
 327   20:20   0.00   57.0    33    3.7   268     7.7   832.8    0.00 
 327   20:30   0.00   54.1    35    1.5   333     4.7   833.0    0.00 
 327   20:40   0.00   54.0    36    1.7   297     5.4   833.1    0.00 
 327   20:50   0.00   55.3    34    2.8   330     6.1   833.2    0.00 
 327   21:00   0.00   55.5    33    3.1   276     6.3   833.0    0.00 
 327   21:10   0.00   53.1    35    1.1    52     2.9   832.9    0.00 
 327   21:20   0.00   54.7    34    6.2   262    10.7   833.0    0.00 
 327   21:30   0.00   58.7    30    9.8   268    12.2   833.0    0.00 
 327   21:40   0.00   61.8    26    8.9   288    14.2   832.9    0.00 
 327   21:50   0.00   62.9    25    7.1   287    11.9   833.0    0.00 
 327   22:00   0.00   60.6    28    2.6   115     5.3   832.8    0.00 
 327   22:10   0.00   57.6    31    1.7   120     4.0   832.6    0.00 
 327   22:20   0.00   57.2    32    1.1   127     2.9   832.5    0.00 
 327   22:30   0.00   56.8    32    3.2   244     6.9   832.5    0.00 
 327   22:40   0.00   56.6    32    5.8   244     7.2   832.4    0.00 
 327   22:50   0.00   57.0    32    3.5   244     5.8   832.3    0.00 
 327   23:00   0.00   56.8    33    3.9   246     7.9   832.3    0.00 
 327   23:10   0.00   57.0    32    6.6   242     8.6   832.3    0.00 
 327   23:20   0.00   56.2    33    5.6   233     7.3   832.2    0.00 
 327   23:30   0.00   55.5    33    5.5   236     8.0   832.1    0.00 
 327   23:40   0.00   56.1    33    4.1   251     5.7   832.0    0.00 
 327   23:50   0.00   55.5    33    2.2   279     5.3   831.9    0.00 
 328    0:00   0.00   55.6    34    0.8   267     2.9   831.7    0.00 
 328    0:10   0.00   55.6    34    3.7   236     7.0   831.7    0.00 
 328    0:20   0.00   55.7    34    4.9   232     6.4   831.6    0.00 
 328    0:30   0.00   56.1    33    4.5   272     6.0   831.5    0.00 
 328    0:40   0.00   54.6    34    4.4   235     8.2   831.4    0.00 
 328    0:50   0.00   54.1    35    3.7   231     8.3   831.5    0.00 
 328    1:00   0.00   55.9    33    3.0   285     6.8   831.5    0.00 
 328    1:10   0.00   55.4    33    1.7   357     5.4   831.3    0.00 
 328    1:20   0.00   57.7    30    1.3   240     3.9   831.2    0.00 
 328    1:30   0.00   58.2    30    4.8   271     7.3   830.9    0.00 
 328    1:40   0.00   58.0    30    6.3   252     8.6   830.7    0.00 
 328    1:50   0.00   57.1    31    7.5   238     8.9   830.6    0.00 
 328    2:00   0.00   57.8    30    7.5   259     9.6   830.6    0.00 
 328    2:10   0.00   59.0    29    8.6   262    10.2   830.6    0.00 
 328    2:20   0.00   57.6    30    7.5   297     8.9   830.7    0.00 
 328    2:30   0.00   56.7    31    6.6   284     8.6   830.7    0.00 
 328    2:40   0.00   54.8    32    6.5   309     8.8   830.8    0.00 
 328    2:50   0.00   55.9    32    6.8   286    10.1   830.9    0.00 
 328    3:00   0.00   55.0    34    6.3   275     9.5   831.0    0.00 
 328    3:10   0.00   57.3    32    2.2   201     4.8   830.9    0.00 
 328    3:20   0.00   56.4    33    1.7   263     6.5   830.7    0.00 
 328    3:30   0.00   55.0    34    3.1   116     5.3   830.7    0.00 
 328    3:40   0.00   54.5    35    2.3    74     5.3   830.7    0.00 
 328    3:50   0.00   56.7    33    3.8   314     6.6   830.6    0.00 
 328    4:00   0.00   58.0    32    6.6   280    13.5   830.4    0.00 
 328    4:10   0.00   58.5    31    9.8   280    13.6   830.4    0.00 
 328    4:20   0.00   58.8    31    9.1   284    14.2   830.3    0.00 
 328    4:30   0.00   58.5    31    6.7   288    11.5   830.3    0.00 
 328    4:40   0.00   57.4    32    1.8   304     6.9   830.2    0.00 
 328    4:50   0.00   57.5    32    2.2   267     5.8   830.1    0.00 
 328    5:00   0.00   55.3    34    1.3    33     3.9   830.0    0.00 
 328    5:10   0.00   54.9    35    2.8   253     6.1   830.1    0.00 
 328    5:20   0.00   55.5    35    3.4   250     6.2   830.2    0.00 
 328    5:30   0.00   55.2    34    5.2   265     7.4   830.1    0.00 
 328    5:40   0.00   52.8    37    5.7   237     7.5   830.1    0.00 
 328    5:50   0.00   51.3    40    2.6   324     4.5   830.2    0.00 
 328    6:00   0.00   51.7    39    1.7   338     5.5   830.4    0.00 
 328    6:10   0.00   53.6    35    3.5   286     5.2   830.7    0.00 
 328    6:20   0.00   52.7    37    5.6   272     6.9   830.7    0.00 
 328    6:30   0.01   51.8    38    4.4   279     6.4   830.7    0.00 
 328    6:40   0.01   50.8    39    1.9   309     3.7   830.7    0.00 
 328    6:50   0.03   51.9    37    3.6   350     6.8   830.8    0.00 
 328    7:00   0.07   53.8    34    4.0   327     6.5   830.9    0.00 
 328    7:10   0.09   55.1    34    2.1    10     5.2   831.0    0.00 
 328    7:20   0.15   57.4    33    1.5    37     3.4   831.0    0.00 
 328    7:30   0.18   58.7    32    3.8     7     7.3   831.0    0.00 
 328    7:40   0.14   58.3    33    3.5     1     4.9   831.0    0.00 
 328    7:50   0.24   60.0    31    2.2    20     4.5   831.1    0.00 
 328    8:00   0.15   60.7    30    2.1   121     3.4   831.2    0.00 
 328    8:10   0.28   62.1    29    2.4   123     3.4   831.3    0.00 
 328    8:20   0.32   62.5    29    3.9    97     5.6   831.3    0.00 
 328    8:30   0.42   62.6    29    4.4   131     6.7   831.4    0.00 
 328    8:40   0.26   62.0    29    4.1   130     6.4   831.6    0.00 
 328    8:50   0.24   61.5    30    3.1   129     5.5   831.5    0.00 
 328    9:00   0.22   61.2    30    1.9   125     3.5   831.5    0.00 
 328    9:10   0.45   61.7    30    3.6   122     5.6   831.5    0.00 
 328    9:20   0.34   62.6    29    2.8   148     5.5   831.7    0.00 
 328    9:30   0.28   61.9    30    4.1   152     5.9   831.8    0.00 
 328    9:40   0.27   61.9    30    3.3   125     5.5   831.8    0.00 
 328    9:50   0.23   61.6    30    4.3   124     6.9   831.8    0.00 
 328   10:00   0.52   63.0    30    3.8   122     6.9   831.8    0.00 
 328   10:10   0.41   63.7    28    3.9   106     7.3   831.7    0.00 
 328   10:20   0.55   64.7    27    4.1   124     7.8   831.7    0.00 
 328   10:30   0.58   66.2    25    3.9   120     6.6   831.8    0.00 
 328   10:40   0.60   67.8    23    4.7   112     9.3   831.7    0.00 
 328   10:50   0.60   69.3    21    4.0   153     7.6   831.7    0.00 
 328   11:00   0.60   69.8    20    4.9   156     9.2   831.5    0.00 
 328   11:10   0.62   69.7    20    7.7   148    13.6   831.5    0.00 

Return to Badger Spring Valley graphs page.


Western Regional Climate Center,wrcc@dri.edu